createdAt,value
2018-11-20T00:01:12.871Z,61.73
2018-11-20T00:04:00.868Z,62.07
2018-11-20T00:06:47.992Z,62.53
2018-11-20T00:09:35.169Z,62.83
2018-11-20T00:12:24.758Z,63.14
2018-11-20T00:15:04.617Z,62.99
2018-11-20T00:17:51.548Z,63.19
2018-11-20T00:20:38.907Z,63.08
2018-11-20T00:23:26.358Z,63.30
2018-11-20T00:26:13.806Z,63.15
2018-11-20T00:29:01.377Z,63.16
2018-11-20T00:31:46.637Z,62.71
2018-11-20T00:34:44.085Z,63.15
2018-11-20T00:37:31.265Z,63.20
2018-11-20T00:40:07.061Z,63.22
2018-11-20T00:42:57.634Z,63.34
2018-11-20T00:45:45.088Z,63.19
2018-11-20T00:48:48.975Z,63.51
2018-11-20T00:51:36.000Z,63.57
2018-11-20T00:54:18.172Z,63.57
2018-11-20T00:57:24.965Z,63.85
2018-11-20T01:00:12.348Z,64.03
2018-11-20T01:03:03.796Z,64.18
2018-11-20T01:05:50.978Z,64.10
2018-11-20T01:08:30.560Z,64.33
2018-11-20T01:11:25.029Z,64.33
2018-11-20T01:14:16.496Z,64.39
2018-11-20T01:17:23.657Z,64.42
2018-11-20T01:20:27.270Z,64.41
2018-11-20T01:23:14.406Z,64.54
2018-11-20T01:26:01.757Z,64.75
2018-11-20T01:28:44.166Z,64.87
2018-11-20T01:31:28.255Z,65.12
2018-11-20T01:34:15.621Z,65.27
2018-11-20T01:37:03.732Z,65.32
2018-11-20T01:39:46.742Z,65.40
2018-11-20T01:42:34.304Z,65.41
2018-11-20T01:45:21.481Z,65.40
2018-11-20T01:47:59.367Z,65.42
2018-11-20T01:51:00.319Z,65.21
2018-11-20T01:54:07.303Z,65.19
2018-11-20T01:57:03.838Z,65.17
2018-11-20T01:59:51.337Z,65.07
2018-11-20T02:02:38.544Z,65.09
2018-11-20T02:05:26.735Z,64.86
2018-11-20T02:08:14.825Z,64.75
2018-11-20T02:11:06.172Z,64.70
2018-11-20T02:14:18.608Z,64.58
2018-11-20T02:17:21.083Z,64.44
2018-11-20T02:20:15.046Z,64.42
2018-11-20T02:23:09.768Z,64.00
2018-11-20T02:25:57.341Z,64.11
2018-11-20T02:28:40.855Z,63.98
2018-11-20T02:31:29.602Z,63.99
2018-11-20T02:34:13.388Z,64.16
2018-11-20T02:37:17.131Z,64.00
2018-11-20T02:39:57.560Z,63.75
2018-11-20T02:43:01.276Z,63.99
2018-11-20T02:45:49.958Z,64.05
2018-11-20T02:48:47.744Z,63.87
2018-11-20T02:51:52.384Z,63.80
2018-11-20T02:54:39.677Z,63.52
2018-11-20T02:57:22.673Z,63.72
2018-11-20T03:00:05.797Z,63.59
2018-11-20T03:03:03.801Z,63.70
2018-11-20T03:05:52.466Z,63.61
2018-11-20T03:08:41.890Z,63.65
2018-11-20T03:11:45.767Z,63.75
2018-11-20T03:14:22.972Z,63.96
2018-11-20T03:17:10.227Z,63.93
2018-11-20T03:19:57.396Z,63.79
2018-11-20T03:22:44.750Z,63.78
2018-11-20T03:26:09.915Z,63.87
2018-11-20T03:29:09.676Z,63.96
2018-11-20T03:31:56.819Z,63.79
2018-11-20T03:34:38.787Z,63.46
2018-11-20T03:37:21.085Z,63.44
2018-11-20T03:40:13.651Z,63.46
2018-11-20T03:42:48.748Z,63.54
2018-11-20T03:45:36.505Z,63.46
2018-11-20T03:48:24.008Z,63.67
2018-11-20T03:51:11.192Z,63.58
2018-11-20T03:53:57.940Z,63.73
2018-11-20T03:56:45.693Z,63.73
2018-11-20T03:59:33.325Z,64.02
2018-11-20T04:02:39.940Z,63.86
2018-11-20T04:05:28.639Z,63.84
2018-11-20T04:08:14.830Z,63.97
2018-11-20T04:11:07.137Z,64.03
2018-11-20T04:13:58.704Z,64.01
2018-11-20T04:16:53.325Z,63.98
2018-11-20T04:19:40.733Z,64.17
2018-11-20T04:22:40.018Z,64.33
2018-11-20T04:25:26.328Z,64.62
2018-11-20T04:28:23.891Z,64.77
2018-11-20T04:31:48.865Z,64.92
2018-11-20T04:34:31.781Z,65.04
2018-11-20T04:37:27.648Z,65.48
2018-11-20T04:40:16.664Z,65.72
2018-11-20T04:42:59.278Z,65.86
2018-11-20T04:45:36.909Z,66.00
2018-11-20T04:48:32.005Z,66.04
2018-11-20T04:51:16.851Z,66.06
2018-11-20T04:54:23.656Z,65.98
2018-11-20T04:57:12.324Z,66.03
2018-11-20T05:00:16.281Z,66.21
2018-11-20T05:03:23.292Z,66.28
2018-11-20T05:06:06.897Z,66.28
2018-11-20T05:09:04.359Z,66.24
2018-11-20T05:11:51.960Z,66.21
2018-11-20T05:14:32.870Z,66.16
2018-11-20T05:17:27.329Z,66.14
2018-11-20T05:20:34.227Z,66.14
2018-11-20T05:23:28.776Z,65.97
2018-11-20T05:26:13.679Z,65.92
2018-11-20T05:28:56.096Z,65.85
2018-11-20T05:31:35.230Z,65.77
2018-11-20T05:34:24.471Z,65.80
2018-11-20T05:37:14.302Z,65.89
2018-11-20T05:39:57.901Z,65.93
2018-11-20T05:42:36.676Z,65.71
2018-11-20T05:45:41.137Z,65.69
2018-11-20T05:48:24.444Z,65.68
2018-11-20T05:51:15.689Z,65.69
2018-11-20T05:54:03.839Z,65.73
2018-11-20T05:56:58.525Z,65.63
2018-11-20T06:00:02.041Z,65.68
2018-11-20T06:02:49.570Z,65.69
2018-11-20T06:05:36.053Z,65.72
2018-11-20T06:08:31.760Z,65.64
2018-11-20T06:11:32.679Z,65.39
2018-11-20T06:14:34.781Z,65.37
2018-11-20T06:17:32.721Z,65.52
2018-11-20T06:20:19.776Z,65.63
2018-11-20T06:23:17.821Z,65.63
2018-11-20T06:26:05.296Z,65.57
2018-11-20T06:29:03.110Z,65.64
2018-11-20T06:31:50.271Z,65.67
2018-11-20T06:34:44.919Z,65.70
2018-11-20T06:37:38.473Z,65.76
2018-11-20T06:40:32.083Z,65.80
2018-11-20T06:43:19.131Z,66.08
2018-11-20T06:46:01.311Z,66.19
2018-11-20T06:48:48.485Z,66.23
2018-11-20T06:51:37.162Z,66.29
2018-11-20T06:54:32.450Z,66.40
2018-11-20T06:57:19.758Z,66.33
2018-11-20T07:00:07.637Z,66.24
2018-11-20T07:02:56.318Z,66.24
2018-11-20T07:05:44.977Z,66.07
2018-11-20T07:08:32.152Z,65.93
2018-11-20T07:11:15.283Z,65.86
2018-11-20T07:14:21.510Z,65.46
2018-11-20T07:17:12.051Z,65.33
2018-11-20T07:20:09.287Z,65.50
2018-11-20T07:23:10.045Z,65.49
2018-11-20T07:25:55.640Z,65.32
2018-11-20T07:28:43.085Z,65.45
2018-11-20T07:31:30.261Z,65.40
2018-11-20T07:34:17.778Z,65.49
2018-11-20T07:37:02.151Z,65.40
2018-11-20T07:39:59.723Z,65.25
2018-11-20T07:42:40.172Z,65.49
2018-11-20T07:45:25.501Z,65.37
2018-11-20T07:48:14.129Z,65.27
2018-11-20T07:50:54.449Z,65.31
2018-11-20T07:53:38.187Z,65.28
2018-11-20T07:56:42.144Z,65.31
2018-11-20T07:59:29.860Z,65.38
2018-11-20T08:02:24.567Z,65.28
2018-11-20T08:05:06.839Z,65.58
2018-11-20T08:07:54.000Z,65.59
2018-11-20T08:10:45.776Z,65.59
2018-11-20T08:13:32.915Z,65.32
2018-11-20T08:16:16.236Z,65.57
2018-11-20T08:19:04.060Z,65.36
2018-11-20T08:21:51.238Z,65.50
2018-11-20T08:24:38.466Z,65.62
2018-11-20T08:27:16.562Z,65.62
2018-11-20T08:29:58.877Z,65.60
2018-11-20T08:32:50.453Z,65.62
2018-11-20T08:35:35.598Z,65.58
2018-11-20T08:38:26.826Z,65.57
2018-11-20T08:41:20.780Z,65.60
2018-11-20T08:44:00.458Z,65.71
2018-11-20T08:46:38.538Z,65.51
2018-11-20T08:49:25.853Z,65.55
2018-11-20T08:52:17.278Z,65.69
2018-11-20T08:55:04.512Z,65.59
2018-11-20T08:58:04.928Z,65.39
2018-11-20T09:00:52.437Z,65.37
2018-11-20T09:03:36.595Z,65.33
2018-11-20T09:06:17.518Z,65.42
2018-11-20T09:08:56.799Z,65.42
2018-11-20T09:11:54.112Z,65.32
2018-11-20T09:14:41.605Z,65.32
2018-11-20T09:17:28.754Z,65.39
2018-11-20T09:20:16.063Z,65.09
2018-11-20T09:23:13.828Z,65.30
2018-11-20T09:25:57.180Z,65.31
2018-11-20T09:28:44.507Z,65.22
2018-11-20T09:31:36.155Z,65.24
2018-11-20T09:34:23.400Z,65.11
2018-11-20T09:37:04.082Z,65.08
2018-11-20T09:39:56.178Z,65.12
2018-11-20T09:42:43.034Z,64.98
2018-11-20T09:46:08.315Z,65.06
2018-11-20T09:48:55.632Z,65.16
2018-11-20T09:51:53.614Z,65.17
2018-11-20T09:54:57.194Z,65.31
2018-11-20T09:57:55.418Z,65.15
2018-11-20T10:00:50.028Z,65.21
2018-11-20T10:03:31.841Z,65.25
2018-11-20T10:06:19.532Z,64.88
2018-11-20T10:09:06.561Z,64.98
2018-11-20T10:12:10.498Z,64.85
2018-11-20T10:14:57.960Z,65.18
2018-11-20T10:17:52.711Z,64.82
2018-11-20T10:20:41.393Z,64.80
2018-11-20T10:23:33.157Z,64.85
2018-11-20T10:26:20.728Z,65.16
2018-11-20T10:29:08.396Z,64.93
2018-11-20T10:31:57.765Z,65.01
2018-11-20T10:34:45.395Z,65.02
2018-11-20T10:37:34.009Z,64.94
2018-11-20T10:40:16.059Z,65.05
2018-11-20T10:42:58.474Z,64.93
2018-11-20T10:45:39.936Z,64.78
2018-11-20T10:48:34.614Z,64.98
2018-11-20T10:51:18.396Z,64.76
2018-11-20T10:54:05.566Z,64.62
2018-11-20T10:56:59.939Z,64.71
2018-11-20T10:59:44.847Z,64.65
2018-11-20T11:02:32.596Z,64.93
2018-11-20T11:05:19.717Z,64.52
2018-11-20T11:08:06.811Z,64.51
2018-11-20T11:10:58.033Z,64.42
2018-11-20T11:13:46.717Z,64.36
2018-11-20T11:16:32.046Z,64.38
2018-11-20T11:19:14.880Z,64.32
2018-11-20T11:22:02.250Z,64.37
2018-11-20T11:24:49.299Z,64.37
2018-11-20T11:27:43.868Z,63.82
2018-11-20T11:30:44.707Z,64.12
2018-11-20T11:33:32.520Z,64.18
2018-11-20T11:36:19.723Z,64.30
2018-11-20T11:39:11.738Z,64.29
2018-11-20T11:42:15.524Z,64.10
2018-11-20T11:45:02.692Z,64.24
2018-11-20T11:47:51.384Z,64.41
2018-11-20T11:50:38.281Z,64.44
2018-11-20T11:53:19.779Z,64.52
2018-11-20T11:56:14.443Z,64.54
2018-11-20T11:59:02.071Z,64.73
2018-11-20T12:04:59.706Z,64.63
2018-11-20T12:07:47.290Z,64.51
2018-11-20T12:10:28.809Z,64.62
2018-11-20T12:16:03.952Z,64.55
2018-11-20T12:18:57.160Z,64.75
2018-11-20T12:21:51.539Z,64.57
2018-11-20T12:24:40.214Z,64.48
2018-11-20T12:27:27.855Z,64.54
2018-11-20T12:30:16.548Z,64.48
2018-11-20T12:32:59.045Z,64.50
2018-11-20T12:35:41.863Z,64.54
2018-11-20T12:38:33.359Z,64.54
2018-11-20T12:41:20.940Z,64.41
2018-11-20T12:44:08.345Z,64.19
2018-11-20T12:46:59.847Z,64.28
2018-11-20T12:49:40.410Z,64.20
2018-11-20T12:52:29.093Z,64.20
2018-11-20T12:55:15.381Z,64.48
2018-11-20T12:58:07.505Z,64.52
2018-11-20T13:00:59.250Z,64.68
2018-11-20T13:03:43.467Z,64.59
2018-11-20T13:06:31.095Z,64.67
2018-11-20T13:09:20.811Z,64.87
2018-11-20T13:12:06.433Z,64.83
2018-11-20T13:15:03.706Z,64.86
2018-11-20T13:17:52.456Z,64.77
2018-11-20T13:20:35.703Z,64.59
2018-11-20T13:23:25.561Z,64.77
2018-11-20T13:26:31.357Z,64.75
2018-11-20T13:29:18.865Z,64.74
2018-11-20T13:31:59.307Z,64.81
2018-11-20T13:35:01.175Z,64.91
2018-11-20T13:37:53.176Z,64.89
2018-11-20T13:41:09.532Z,64.80
2018-11-20T13:44:01.958Z,64.70
2018-11-20T13:46:53.645Z,64.53
2018-11-20T13:49:52.413Z,64.78
2018-11-20T13:52:42.646Z,64.76
2018-11-20T13:55:24.830Z,64.64
2018-11-20T13:58:11.404Z,64.53
2018-11-20T14:00:57.449Z,64.53
2018-11-20T14:04:01.209Z,64.54
2018-11-20T14:06:43.677Z,64.55
2018-11-20T14:09:36.878Z,64.46
2018-11-20T14:12:24.335Z,64.52
2018-11-20T14:15:11.790Z,64.31
2018-11-20T14:17:59.242Z,64.30
2018-11-20T14:20:43.436Z,64.49
2018-11-20T14:23:33.345Z,64.37
2018-11-20T14:26:40.108Z,64.58
2018-11-20T14:29:19.445Z,64.61
2018-11-20T14:32:18.402Z,64.56
2018-11-20T14:35:06.083Z,64.64
2018-11-20T14:37:57.913Z,64.52
2018-11-20T14:41:01.017Z,64.49
2018-11-20T14:43:45.561Z,64.52
2018-11-20T14:46:27.762Z,64.35
2018-11-20T14:49:17.045Z,64.46
2018-11-20T14:52:08.804Z,64.40
2018-11-20T14:55:00.171Z,64.50
2018-11-20T14:57:51.625Z,64.54
2018-11-20T15:00:45.124Z,64.69
2018-11-20T15:03:40.261Z,64.79
2018-11-20T15:06:43.830Z,64.86
2018-11-20T15:09:31.075Z,64.77
2018-11-20T15:12:35.405Z,64.80
2018-11-20T15:15:27.107Z,64.99
2018-11-20T15:18:34.112Z,65.18
2018-11-20T15:21:22.049Z,65.66
2018-11-20T15:24:10.725Z,65.93
2018-11-20T15:26:58.191Z,66.72
2018-11-20T15:29:56.272Z,67.05
2018-11-20T15:32:47.296Z,67.61
2018-11-20T15:35:35.974Z,68.15
2018-11-20T15:38:24.788Z,69.01
2018-11-20T15:41:12.127Z,69.65
2018-11-20T15:44:07.058Z,70.63
2018-11-20T15:46:54.536Z,71.33
2018-11-20T15:49:46.217Z,72.10
2018-11-20T15:52:46.841Z,72.96
2018-11-20T15:55:42.136Z,73.38
2018-11-20T15:58:36.798Z,74.01
2018-11-20T16:01:36.126Z,74.39
2018-11-20T16:04:23.792Z,74.89
2018-11-20T16:07:18.411Z,75.24
2018-11-20T16:10:09.373Z,75.69
2018-11-20T16:12:50.740Z,76.17
2018-11-20T16:15:40.656Z,76.61
2018-11-20T16:18:25.430Z,76.52
2018-11-20T16:21:17.301Z,76.91
2018-11-20T16:24:24.208Z,76.97
2018-11-20T16:27:11.422Z,77.02
2018-11-20T16:30:24.828Z,76.91
2018-11-20T16:33:16.040Z,77.02
2018-11-20T16:36:03.191Z,77.03
2018-11-20T16:38:50.491Z,77.17
2018-11-20T16:41:43.186Z,77.26
2018-11-20T16:44:35.176Z,77.15
2018-11-20T16:47:22.609Z,77.30
2018-11-20T16:50:17.463Z,77.31
2018-11-20T16:53:05.107Z,77.48
2018-11-20T16:56:00.853Z,77.61
2018-11-20T16:59:01.501Z,77.74
2018-11-20T17:01:59.979Z,77.72
2018-11-20T17:04:54.764Z,77.84
2018-11-20T17:07:42.075Z,78.13
2018-11-20T17:10:29.742Z,78.02
2018-11-20T17:13:27.200Z,77.99
2018-11-20T17:16:14.294Z,78.07
2018-11-20T17:19:02.957Z,78.08
2018-11-20T17:21:50.092Z,78.00
2018-11-20T17:24:37.674Z,78.21
2018-11-20T17:27:24.855Z,78.26
2018-11-20T17:30:25.895Z,78.26
2018-11-20T17:33:13.196Z,78.57
2018-11-20T17:36:17.044Z,78.82
2018-11-20T17:39:20.594Z,78.99
2018-11-20T17:42:18.392Z,78.84
2018-11-20T17:45:00.842Z,78.87
2018-11-20T17:47:39.716Z,78.91
2018-11-20T17:50:31.430Z,79.13
2018-11-20T17:53:19.097Z,79.12
2018-11-20T17:56:13.001Z,79.23
2018-11-20T17:59:00.749Z,79.10
2018-11-20T18:01:57.372Z,79.23
2018-11-20T18:04:46.093Z,79.32
2018-11-20T18:07:41.465Z,79.47
2018-11-20T18:10:29.112Z,79.46
2018-11-20T18:13:25.776Z,79.37
2018-11-20T18:17:26.598Z,79.99
2018-11-20T18:20:13.660Z,79.69
2018-11-20T18:22:54.411Z,79.66
2018-11-20T18:25:41.226Z,79.76
2018-11-20T18:28:27.129Z,79.71
2018-11-20T18:31:20.569Z,79.83
2018-11-20T18:34:11.597Z,79.81
2018-11-20T18:37:09.116Z,79.78
2018-11-20T18:39:55.913Z,79.81
2018-11-20T18:42:37.325Z,79.88
2018-11-20T18:45:21.993Z,79.95
2018-11-20T18:48:09.855Z,80.03
2018-11-20T18:50:58.101Z,80.23
2018-11-20T18:53:34.195Z,80.20
2018-11-20T18:56:36.980Z,80.11
2018-11-20T18:59:31.442Z,80.05
2018-11-20T19:02:19.062Z,79.96
2018-11-20T19:05:16.409Z,80.04
2018-11-20T19:08:03.115Z,79.96
2018-11-20T19:10:49.585Z,79.78
2018-11-20T19:13:39.532Z,79.81
2018-11-20T19:16:26.291Z,79.82
2018-11-20T19:19:20.146Z,79.80
2018-11-20T19:22:04.259Z,79.62
2018-11-20T19:24:55.340Z,79.59
2018-11-20T19:27:41.514Z,79.61
2018-11-20T19:30:27.997Z,79.34
2018-11-20T19:33:10.006Z,79.61
2018-11-20T19:35:50.349Z,79.61
2018-11-20T19:38:40.568Z,79.57
2018-11-20T19:41:27.011Z,79.56
2018-11-20T19:44:13.720Z,79.41
2018-11-20T19:47:00.206Z,79.41
2018-11-20T19:49:47.026Z,79.29
2018-11-20T19:52:40.732Z,79.36
2018-11-20T19:55:26.875Z,79.14
2018-11-20T19:58:17.795Z,79.07
2018-11-20T20:01:04.286Z,79.11
2018-11-20T20:03:43.119Z,79.14
2018-11-20T20:06:33.741Z,78.93
2018-11-20T20:09:15.480Z,78.68
2018-11-20T20:12:03.745Z,78.68
2018-11-20T20:14:45.696Z,78.64
2018-11-20T20:17:27.340Z,78.49
2018-11-20T20:20:16.999Z,78.54
2018-11-20T20:23:07.179Z,78.24
2018-11-20T20:25:53.416Z,78.36
2018-11-20T20:28:35.877Z,78.29
2018-11-20T20:31:15.670Z,78.48
2018-11-20T20:34:21.675Z,78.28
2018-11-20T20:37:15.316Z,78.21
2018-11-20T20:40:02.049Z,77.83
2018-11-20T20:42:52.205Z,77.83
2018-11-20T20:45:40.303Z,77.59
2018-11-20T20:48:37.123Z,77.75
2018-11-20T20:51:16.244Z,77.82
2018-11-20T20:54:01.393Z,77.96
2018-11-20T20:56:49.146Z,77.63
2018-11-20T20:59:48.915Z,77.78
2018-11-20T21:02:42.615Z,77.62
2018-11-20T21:05:48.833Z,77.59
2018-11-20T21:08:45.291Z,77.29
2018-11-20T21:11:36.577Z,77.29
2018-11-20T21:14:17.398Z,77.31
2018-11-20T21:17:07.684Z,77.35
2018-11-20T21:19:57.752Z,77.34
2018-11-20T21:22:53.053Z,77.32
2018-11-20T21:25:39.261Z,77.30
2018-11-20T21:28:20.788Z,77.31
2018-11-20T21:31:07.275Z,77.27
2018-11-20T21:33:54.602Z,77.23
2018-11-20T21:36:29.969Z,76.90
2018-11-20T21:39:16.447Z,77.08
2018-11-20T21:42:04.372Z,77.11
2018-11-20T21:44:47.170Z,76.82
2018-11-20T21:47:37.895Z,76.78
2018-11-20T21:50:30.149Z,76.86
2018-11-20T21:53:19.356Z,76.75
2018-11-20T21:56:16.144Z,76.87
2018-11-20T21:59:06.496Z,76.57
2018-11-20T22:02:01.485Z,76.46
2018-11-20T22:04:55.663Z,76.50
2018-11-20T22:07:42.680Z,76.33
2018-11-20T22:10:26.013Z,76.50
2018-11-20T22:13:13.213Z,76.37
2018-11-20T22:15:59.833Z,76.31
2018-11-20T22:18:46.507Z,76.43
2018-11-20T22:21:33.320Z,76.29
2018-11-20T22:24:20.071Z,75.94
2018-11-20T22:27:04.316Z,76.06
2018-11-20T22:29:51.068Z,76.06
2018-11-20T22:32:37.353Z,76.08
2018-11-20T22:35:18.712Z,75.99
2018-11-20T22:38:06.574Z,75.94
2018-11-20T22:41:06.813Z,75.89
2018-11-20T22:44:00.821Z,75.85
2018-11-20T22:46:57.419Z,75.88
2018-11-20T22:49:46.551Z,75.85
2018-11-20T22:52:43.248Z,75.92
2018-11-20T22:55:29.642Z,75.77
2018-11-20T22:58:17.519Z,75.86
2018-11-20T23:00:57.271Z,75.68
2018-11-20T23:04:03.282Z,75.82
2018-11-20T23:06:48.863Z,75.71
2018-11-20T23:09:17.632Z,75.85
2018-11-20T23:11:46.979Z,75.88
2018-11-20T23:14:15.701Z,75.78
2018-11-20T23:16:44.485Z,75.82
2018-11-20T23:19:13.196Z,75.86
2018-11-20T23:21:41.973Z,75.80
